Pangborn Memorial Airport
KEAT : now visible

Airfield :











YOU CAN JOIN US ON...

 
LOGIN :

Register | Disclaimer

   EN    FR    IT 

 









Legend :    VFR   Marginal VFR   IFR   Intensive IFR   Very Intensive IFR
Visi :
Ceiling :
>= 8 km
>= 3000ft
5 to 8 km
1000 to 3000 ft
1500m to 5 km
500 to 1000 ft
800 to 1500m
200 to 500 ft
< 800m
< 200 ft
Symbols :   Thunderstorms  Fog  Heavy snow  Heavy precipitations  Wind > 20 kt






- Airport Elevation : 1249 ft


KEAT - Pangborn Memorial

CURRENT METAR :
  • 042155Z AUTO 00000KT 10SM CLR 03/M02 A3057 RMK AO2 SLP365 T00331022

EXPIRED METARs :
  • 042055Z AUTO 00000KT 10SM CLR 02/M02 A3058 RMK AO2 SLP369 T00221022 58012
  • 041955Z AUTO 00000KT 10SM CLR 01/M02 A3060 RMK AO2 SLP376 T00111022

TAF KEAT
Valid from the 04 at 20:00 until the 05 at 18:00 UTC


041956Z 0420/0518 VRB03KT P6SM SKC
FM050900 30004KT 3SM BR SCT001
FM051200 28005KT 1SM BR OVC005
KZSE FIR / North America



MET'MAP, your aeronautical weather chart ! - Copyright ORBIFLY December 2007 - Disclaimer

ORBIFLY MET'MAP TEAM :

Programming & Development : Alexandra Zaïnal
Concept & original design : Baudouin d'Aumeries
Assistance for programming : Marc-Olivier Méhu
Technical & hardware support : Manuel Goepfert

Contact : metmap@orbifly.com




SOURCES & CREDITS :

   NOAA       Earth
Advisory